sensor_id;sensor_type;location;lat;lon;timestamp;temperature;humidity
14709;DHT22;7445;50.774;4.944;2022-08-04T09:14:57;26.80;99.90
14709;DHT22;7445;50.774;4.944;2022-08-04T09:17:31;26.70;99.90
14709;DHT22;7445;50.774;4.944;2022-08-04T09:20:09;26.60;99.90
14709;DHT22;7445;50.774;4.944;2022-08-04T09:25:25;26.40;99.90
14709;DHT22;7445;50.774;4.944;2022-08-04T09:27:55;26.30;99.90
14709;DHT22;7445;50.774;4.944;2022-08-04T09:30:44;26.30;99.90
14709;DHT22;7445;50.774;4.944;2022-08-04T09:36:27;26.60;99.90
14709;DHT22;7445;50.774;4.944;2022-08-04T09:39:18;26.50;99.90
14709;DHT22;7445;50.774;4.944;2022-08-04T09:42:03;26.40;99.90
14709;DHT22;7445;50.774;4.944;2022-08-04T09:48:18;26.20;99.90
14709;DHT22;7445;50.774;4.944;2022-08-04T09:50:52;26.30;99.90
14709;DHT22;7445;50.774;4.944;2022-08-04T09:59:57;26.30;99.90
14709;DHT22;7445;50.774;4.944;2022-08-04T10:02:54;26.30;99.90
14709;DHT22;7445;50.774;4.944;2022-08-04T10:17:58;27.00;99.90
14709;DHT22;7445;50.774;4.944;2022-08-04T10:26:35;27.60;99.90
14709;DHT22;7445;50.774;4.944;2022-08-04T10:29:13;27.90;99.90
14709;DHT22;7445;50.774;4.944;2022-08-04T10:31:59;28.10;99.90
14709;DHT22;7445;50.774;4.944;2022-08-04T10:34:59;28.20;99.90
14709;DHT22;7445;50.774;4.944;2022-08-04T10:40:25;27.80;99.90
14709;DHT22;7445;50.774;4.944;2022-08-04T10:45:41;27.10;99.90
14709;DHT22;7445;50.774;4.944;2022-08-04T10:48:22;27.20;99.90
14709;DHT22;7445;50.774;4.944;2022-08-04T10:51:05;27.30;99.90
14709;DHT22;7445;50.774;4.944;2022-08-04T10:53:37;27.30;99.90
14709;DHT22;7445;50.774;4.944;2022-08-04T10:56:10;27.20;99.90
14709;DHT22;7445;50.774;4.944;2022-08-04T10:58:53;27.30;99.90
14709;DHT22;7445;50.774;4.944;2022-08-04T11:01:28;27.50;99.90
14709;DHT22;7445;50.774;4.944;2022-08-04T11:04:14;27.90;99.90
14709;DHT22;7445;50.774;4.944;2022-08-04T11:06:43;27.80;99.90
14709;DHT22;7445;50.774;4.944;2022-08-04T11:09:10;27.90;99.90
14709;DHT22;7445;50.774;4.944;2022-08-04T11:11:42;27.90;99.90
14709;DHT22;7445;50.774;4.944;2022-08-04T11:14:15;28.30;99.90
14709;DHT22;7445;50.774;4.944;2022-08-04T11:16:56;28.50;99.90
14709;DHT22;7445;50.774;4.944;2022-08-04T11:19:31;28.60;99.90
14709;DHT22;7445;50.774;4.944;2022-08-04T11:22:07;28.50;99.90
14709;DHT22;7445;50.774;4.944;2022-08-04T11:30:02;28.80;99.90
14709;DHT22;7445;50.774;4.944;2022-08-04T11:33:30;28.90;99.90
14709;DHT22;7445;50.774;4.944;2022-08-04T11:36:02;29.00;99.90
14709;DHT22;7445;50.774;4.944;2022-08-04T11:38:36;28.70;99.90
14709;DHT22;7445;50.774;4.944;2022-08-04T11:41:08;28.80;99.90
14709;DHT22;7445;50.774;4.944;2022-08-04T11:43:44;28.80;99.90
14709;DHT22;7445;50.774;4.944;2022-08-04T11:46:22;28.80;99.90
14709;DHT22;7445;50.774;4.944;2022-08-04T11:52:02;28.60;99.90
14709;DHT22;7445;50.774;4.944;2022-08-04T11:54:31;28.40;99.90
14709;DHT22;7445;50.774;4.944;2022-08-04T11:56:58;28.20;99.90
14709;DHT22;7445;50.774;4.944;2022-08-04T11:59:26;28.40;99.90
14709;DHT22;7445;50.774;4.944;2022-08-04T12:04:46;28.90;99.90
14709;DHT22;7445;50.774;4.944;2022-08-04T12:07:40;29.30;99.90
14709;DHT22;7445;50.774;4.944;2022-08-04T12:13:39;28.80;99.90
14709;DHT22;7445;50.774;4.944;2022-08-04T12:21:30;28.20;99.90
14709;DHT22;7445;50.774;4.944;2022-08-04T12:24:02;28.10;99.90
14709;DHT22;7445;50.774;4.944;2022-08-04T12:26:37;28.10;99.90
14709;DHT22;7445;50.774;4.944;2022-08-04T12:29:07;27.90;99.90
14709;DHT22;7445;50.774;4.944;2022-08-04T12:32:12;27.90;99.90
14709;DHT22;7445;50.774;4.944;2022-08-04T12:34:45;27.90;99.90
14709;DHT22;7445;50.774;4.944;2022-08-04T12:37:40;27.80;99.90
14709;DHT22;7445;50.774;4.944;2022-08-04T12:40:19;27.80;99.90
14709;DHT22;7445;50.774;4.944;2022-08-04T12:43:01;27.80;99.90
14709;DHT22;7445;50.774;4.944;2022-08-04T12:45:30;27.80;99.90
14709;DHT22;7445;50.774;4.944;2022-08-04T12:47:58;27.70;99.90
14709;DHT22;7445;50.774;4.944;2022-08-04T12:50:26;27.90;99.90
14709;DHT22;7445;50.774;4.944;2022-08-04T12:52:56;28.10;99.90
14709;DHT22;7445;50.774;4.944;2022-08-04T12:55:25;28.00;99.90
14709;DHT22;7445;50.774;4.944;2022-08-04T12:57:52;27.90;99.90
14709;DHT22;7445;50.774;4.944;2022-08-04T13:00:35;27.90;99.90
14709;DHT22;7445;50.774;4.944;2022-08-04T13:03:26;28.00;99.90
14709;DHT22;7445;50.774;4.944;2022-08-04T13:06:05;28.00;99.90
14709;DHT22;7445;50.774;4.944;2022-08-04T13:08:35;27.90;99.90
14709;DHT22;7445;50.774;4.944;2022-08-04T13:11:06;27.80;99.90
14709;DHT22;7445;50.774;4.944;2022-08-04T13:13:35;27.80;99.90
14709;DHT22;7445;50.774;4.944;2022-08-04T13:16:07;27.80;99.90
14709;DHT22;7445;50.774;4.944;2022-08-04T13:18:45;27.90;99.90
14709;DHT22;7445;50.774;4.944;2022-08-04T13:23:42;28.20;99.90
14709;DHT22;7445;50.774;4.944;2022-08-04T13:26:14;28.30;99.90
14709;DHT22;7445;50.774;4.944;2022-08-04T13:29:03;28.50;99.90
14709;DHT22;7445;50.774;4.944;2022-08-04T13:31:30;28.70;99.90
14709;DHT22;7445;50.774;4.944;2022-08-04T13:34:05;29.10;99.90
14709;DHT22;7445;50.774;4.944;2022-08-04T13:36:33;29.50;99.90
14709;DHT22;7445;50.774;4.944;2022-08-04T13:39:12;29.70;99.90
14709;DHT22;7445;50.774;4.944;2022-08-04T13:41:51;29.60;99.90
14709;DHT22;7445;50.774;4.944;2022-08-04T13:44:30;29.20;99.90
14709;DHT22;7445;50.774;4.944;2022-08-04T13:47:16;29.00;99.90
14709;DHT22;7445;50.774;4.944;2022-08-04T13:50:16;29.10;99.90
14709;DHT22;7445;50.774;4.944;2022-08-04T13:52:52;29.50;99.90
14709;DHT22;7445;50.774;4.944;2022-08-04T13:58:04;30.30;99.90
14709;DHT22;7445;50.774;4.944;2022-08-04T14:00:47;30.60;99.90
14709;DHT22;7445;50.774;4.944;2022-08-04T14:03:24;30.80;99.90
14709;DHT22;7445;50.774;4.944;2022-08-04T14:06:10;30.50;99.90
14709;DHT22;7445;50.774;4.944;2022-08-04T14:08:58;31.20;99.90
14709;DHT22;7445;50.774;4.944;2022-08-04T14:11:36;31.20;99.90
14709;DHT22;7445;50.774;4.944;2022-08-04T14:14:26;30.60;99.90
14709;DHT22;7445;50.774;4.944;2022-08-04T14:19:54;30.60;99.90
14709;DHT22;7445;50.774;4.944;2022-08-04T14:27:54;30.10;99.90
14709;DHT22;7445;50.774;4.944;2022-08-04T14:30:41;29.70;99.90
14709;DHT22;7445;50.774;4.944;2022-08-04T14:33:43;30.00;99.90
14709;DHT22;7445;50.774;4.944;2022-08-04T14:36:25;30.30;99.90
14709;DHT22;7445;50.774;4.944;2022-08-04T14:39:08;30.60;99.90
14709;DHT22;7445;50.774;4.944;2022-08-04T14:41:48;30.90;99.90
14709;DHT22;7445;50.774;4.944;2022-08-04T14:44:52;31.00;99.90
14709;DHT22;7445;50.774;4.944;2022-08-04T14:47:46;31.40;99.90
14709;DHT22;7445;50.774;4.944;2022-08-04T14:50:20;31.70;99.90
14709;DHT22;7445;50.774;4.944;2022-08-04T14:56:19;31.80;99.90
14709;DHT22;7445;50.774;4.944;2022-08-04T14:59:02;31.90;99.90
14709;DHT22;7445;50.774;4.944;2022-08-04T15:05:17;32.30;99.90
14709;DHT22;7445;50.774;4.944;2022-08-04T15:08:04;32.20;99.90
14709;DHT22;7445;50.774;4.944;2022-08-04T15:10:32;31.80;99.90
14709;DHT22;7445;50.774;4.944;2022-08-04T15:13:01;31.80;99.90
14709;DHT22;7445;50.774;4.944;2022-08-04T15:15:28;31.90;99.90
14709;DHT22;7445;50.774;4.944;2022-08-04T15:17:55;32.00;99.90
14709;DHT22;7445;50.774;4.944;2022-08-04T15:20:22;32.20;99.90
14709;DHT22;7445;50.774;4.944;2022-08-04T15:22:48;31.90;99.90
14709;DHT22;7445;50.774;4.944;2022-08-04T15:25:16;31.30;99.90
14709;DHT22;7445;50.774;4.944;2022-08-04T15:27:46;31.30;99.90
14709;DHT22;7445;50.774;4.944;2022-08-04T15:30:17;31.20;99.90
14709;DHT22;7445;50.774;4.944;2022-08-04T15:33:14;31.00;99.90
14709;DHT22;7445;50.774;4.944;2022-08-04T15:35:43;31.00;99.90
14709;DHT22;7445;50.774;4.944;2022-08-04T15:38:28;30.90;99.90
14709;DHT22;7445;50.774;4.944;2022-08-04T15:41:04;31.10;99.90
14709;DHT22;7445;50.774;4.944;2022-08-04T15:43:58;31.40;99.90
14709;DHT22;7445;50.774;4.944;2022-08-04T15:49:22;31.30;99.90
14709;DHT22;7445;50.774;4.944;2022-08-04T15:52:12;31.70;99.90
14709;DHT22;7445;50.774;4.944;2022-08-04T15:54:40;32.00;99.90
14709;DHT22;7445;50.774;4.944;2022-08-04T15:57:06;32.40;99.90
14709;DHT22;7445;50.774;4.944;2022-08-04T16:00:02;32.50;99.90
14709;DHT22;7445;50.774;4.944;2022-08-04T16:02:35;32.50;99.90
14709;DHT22;7445;50.774;4.944;2022-08-04T16:07:58;32.80;99.90
14709;DHT22;7445;50.774;4.944;2022-08-04T16:13:12;31.70;99.90
14709;DHT22;7445;50.774;4.944;2022-08-04T16:15:55;31.40;99.90
14709;DHT22;7445;50.774;4.944;2022-08-04T16:18:38;31.20;99.90
14709;DHT22;7445;50.774;4.944;2022-08-04T16:21:18;30.80;99.90
14709;DHT22;7445;50.774;4.944;2022-08-04T16:24:02;30.40;99.90
14709;DHT22;7445;50.774;4.944;2022-08-04T16:34:31;29.90;99.90
14709;DHT22;7445;50.774;4.944;2022-08-04T16:37:02;29.70;99.90
14709;DHT22;7445;50.774;4.944;2022-08-04T16:39:28;29.50;99.90
14709;DHT22;7445;50.774;4.944;2022-08-04T16:41:54;29.30;99.90
14709;DHT22;7445;50.774;4.944;2022-08-04T16:44:31;29.30;99.90
14709;DHT22;7445;50.774;4.944;2022-08-04T16:47:00;29.50;99.90
14709;DHT22;7445;50.774;4.944;2022-08-04T16:49:28;29.70;99.90
14709;DHT22;7445;50.774;4.944;2022-08-04T16:52:00;29.80;99.90
14709;DHT22;7445;50.774;4.944;2022-08-04T16:54:32;29.60;99.90
14709;DHT22;7445;50.774;4.944;2022-08-04T16:56:59;29.70;99.90
14709;DHT22;7445;50.774;4.944;2022-08-04T16:59:26;29.70;99.90
14709;DHT22;7445;50.774;4.944;2022-08-04T17:01:53;29.70;99.90
14709;DHT22;7445;50.774;4.944;2022-08-04T17:04:30;29.70;99.90
14709;DHT22;7445;50.774;4.944;2022-08-04T17:07:04;29.70;99.90
14709;DHT22;7445;50.774;4.944;2022-08-04T17:09:36;29.50;99.90
14709;DHT22;7445;50.774;4.944;2022-08-04T17:12:02;29.60;99.90
14709;DHT22;7445;50.774;4.944;2022-08-04T17:14:30;29.60;99.90
14709;DHT22;7445;50.774;4.944;2022-08-04T17:16:58;29.60;99.90
14709;DHT22;7445;50.774;4.944;2022-08-04T17:19:25;29.50;99.90
14709;DHT22;7445;50.774;4.944;2022-08-04T17:21:52;29.20;99.90
14709;DHT22;7445;50.774;4.944;2022-08-04T17:24:18;29.20;99.90
14709;DHT22;7445;50.774;4.944;2022-08-04T17:26:45;29.20;99.90
14709;DHT22;7445;50.774;4.944;2022-08-04T17:29:11;28.90;99.90
14709;DHT22;7445;50.774;4.944;2022-08-04T17:31:37;28.70;99.90
14709;DHT22;7445;50.774;4.944;2022-08-04T17:34:15;28.80;99.90
14709;DHT22;7445;50.774;4.944;2022-08-04T17:36:45;28.70;99.90
14709;DHT22;7445;50.774;4.944;2022-08-04T17:39:16;28.70;99.90
14709;DHT22;7445;50.774;4.944;2022-08-04T17:41:44;28.60;99.90
14709;DHT22;7445;50.774;4.944;2022-08-04T17:44:13;28.50;99.90
14709;DHT22;7445;50.774;4.944;2022-08-04T17:46:43;28.40;99.90
14709;DHT22;7445;50.774;4.944;2022-08-04T17:56:55;28.10;99.90
14709;DHT22;7445;50.774;4.944;2022-08-04T17:59:42;28.00;99.90
14709;DHT22;7445;50.774;4.944;2022-08-04T18:02:09;28.10;99.90
14709;DHT22;7445;50.774;4.944;2022-08-04T18:04:38;27.90;99.90
14709;DHT22;7445;50.774;4.944;2022-08-04T18:07:22;27.90;99.90
14709;DHT22;7445;50.774;4.944;2022-08-04T18:09:55;27.90;99.90
14709;DHT22;7445;50.774;4.944;2022-08-04T18:12:35;27.90;99.90
14709;DHT22;7445;50.774;4.944;2022-08-04T18:15:20;27.90;99.90
14709;DHT22;7445;50.774;4.944;2022-08-04T18:17:53;27.80;99.90
14709;DHT22;7445;50.774;4.944;2022-08-04T18:20:23;27.80;99.90
14709;DHT22;7445;50.774;4.944;2022-08-04T18:22:49;27.60;99.90
14709;DHT22;7445;50.774;4.944;2022-08-04T18:25:17;27.50;99.90
14709;DHT22;7445;50.774;4.944;2022-08-04T18:27:54;27.40;99.90
14709;DHT22;7445;50.774;4.944;2022-08-04T18:30:24;27.20;99.90
14709;DHT22;7445;50.774;4.944;2022-08-04T18:32:51;27.10;99.90
14709;DHT22;7445;50.774;4.944;2022-08-04T18:35:20;27.00;99.90
14709;DHT22;7445;50.774;4.944;2022-08-04T18:37:45;27.00;99.90
14709;DHT22;7445;50.774;4.944;2022-08-04T18:40:11;27.00;99.90
14709;DHT22;7445;50.774;4.944;2022-08-04T18:42:38;26.90;99.90
14709;DHT22;7445;50.774;4.944;2022-08-04T18:45:04;26.90;99.90
14709;DHT22;7445;50.774;4.944;2022-08-04T18:47:33;26.80;99.90
14709;DHT22;7445;50.774;4.944;2022-08-04T18:49:59;26.80;99.90
14709;DHT22;7445;50.774;4.944;2022-08-04T18:52:24;26.70;99.90
14709;DHT22;7445;50.774;4.944;2022-08-04T18:54:50;26.60;99.90
14709;DHT22;7445;50.774;4.944;2022-08-04T18:57:20;26.50;99.90
14709;DHT22;7445;50.774;4.944;2022-08-04T18:59:45;26.40;99.90
14709;DHT22;7445;50.774;4.944;2022-08-04T19:02:11;26.30;99.90
14709;DHT22;7445;50.774;4.944;2022-08-04T19:04:38;26.10;99.90
14709;DHT22;7445;50.774;4.944;2022-08-04T19:07:05;26.00;99.90
14709;DHT22;7445;50.774;4.944;2022-08-04T19:09:31;25.90;99.90
14709;DHT22;7445;50.774;4.944;2022-08-04T19:11:59;25.70;99.90
14709;DHT22;7445;50.774;4.944;2022-08-04T19:14:25;25.60;99.90
14709;DHT22;7445;50.774;4.944;2022-08-04T19:16:50;25.50;99.90
14709;DHT22;7445;50.774;4.944;2022-08-04T19:19:16;25.30;99.90
14709;DHT22;7445;50.774;4.944;2022-08-04T19:21:43;25.20;99.90
14709;DHT22;7445;50.774;4.944;2022-08-04T19:24:09;25.10;99.90
14709;DHT22;7445;50.774;4.944;2022-08-04T19:26:38;25.10;99.90
14709;DHT22;7445;50.774;4.944;2022-08-04T19:29:04;24.90;99.90
14709;DHT22;7445;50.774;4.944;2022-08-04T19:31:30;24.70;99.90
14709;DHT22;7445;50.774;4.944;2022-08-04T19:33:56;24.50;99.90
14709;DHT22;7445;50.774;4.944;2022-08-04T19:36:22;24.40;99.90
14709;DHT22;7445;50.774;4.944;2022-08-04T19:38:48;24.20;99.90
14709;DHT22;7445;50.774;4.944;2022-08-04T19:41:14;23.90;99.90
14709;DHT22;7445;50.774;4.944;2022-08-04T19:43:40;23.80;99.90
14709;DHT22;7445;50.774;4.944;2022-08-04T19:46:07;23.60;99.90
14709;DHT22;7445;50.774;4.944;2022-08-04T19:48:33;23.40;99.90
14709;DHT22;7445;50.774;4.944;2022-08-04T19:50:59;23.20;99.90
14709;DHT22;7445;50.774;4.944;2022-08-04T19:53:25;23.10;99.90
14709;DHT22;7445;50.774;4.944;2022-08-04T19:55:50;23.00;99.90
14709;DHT22;7445;50.774;4.944;2022-08-04T19:58:16;22.60;99.90
14709;DHT22;7445;50.774;4.944;2022-08-04T20:00:44;22.30;99.90
14709;DHT22;7445;50.774;4.944;2022-08-04T20:03:09;22.10;99.90
14709;DHT22;7445;50.774;4.944;2022-08-04T20:05:41;21.90;99.90
14709;DHT22;7445;50.774;4.944;2022-08-04T20:08:07;21.90;99.90
14709;DHT22;7445;50.774;4.944;2022-08-04T20:10:33;22.00;99.90
14709;DHT22;7445;50.774;4.944;2022-08-04T20:12:59;21.80;99.90
14709;DHT22;7445;50.774;4.944;2022-08-04T20:15:24;21.60;99.90
14709;DHT22;7445;50.774;4.944;2022-08-04T20:17:51;21.60;99.90
14709;DHT22;7445;50.774;4.944;2022-08-04T20:20:17;21.70;99.90
14709;DHT22;7445;50.774;4.944;2022-08-04T20:22:42;21.80;99.90
14709;DHT22;7445;50.774;4.944;2022-08-04T20:25:08;21.70;99.90
14709;DHT22;7445;50.774;4.944;2022-08-04T20:27:35;21.60;99.90
14709;DHT22;7445;50.774;4.944;2022-08-04T20:30:01;21.50;99.90
14709;DHT22;7445;50.774;4.944;2022-08-04T20:32:27;21.60;99.90
14709;DHT22;7445;50.774;4.944;2022-08-04T20:34:55;21.60;99.90
14709;DHT22;7445;50.774;4.944;2022-08-04T20:37:23;21.70;99.90
14709;DHT22;7445;50.774;4.944;2022-08-04T20:39:56;21.60;99.90
14709;DHT22;7445;50.774;4.944;2022-08-04T20:42:24;21.50;99.90
14709;DHT22;7445;50.774;4.944;2022-08-04T20:44:50;21.60;99.90
14709;DHT22;7445;50.774;4.944;2022-08-04T20:47:15;21.60;99.90
14709;DHT22;7445;50.774;4.944;2022-08-04T20:49:41;21.30;99.90
14709;DHT22;7445;50.774;4.944;2022-08-04T20:52:07;21.30;99.90
14709;DHT22;7445;50.774;4.944;2022-08-04T20:54:32;21.20;99.90
14709;DHT22;7445;50.774;4.944;2022-08-04T20:56:58;21.40;99.90
14709;DHT22;7445;50.774;4.944;2022-08-04T20:59:24;21.40;99.90
14709;DHT22;7445;50.774;4.944;2022-08-04T21:01:50;21.40;99.90
14709;DHT22;7445;50.774;4.944;2022-08-04T21:04:16;21.30;99.90
14709;DHT22;7445;50.774;4.944;2022-08-04T21:07:15;21.20;99.90
14709;DHT22;7445;50.774;4.944;2022-08-04T21:09:41;21.10;99.90
14709;DHT22;7445;50.774;4.944;2022-08-04T21:12:11;20.90;99.90
14709;DHT22;7445;50.774;4.944;2022-08-04T21:14:41;21.00;99.90
14709;DHT22;7445;50.774;4.944;2022-08-04T21:17:07;21.20;99.90
14709;DHT22;7445;50.774;4.944;2022-08-04T21:19:33;21.10;99.90
14709;DHT22;7445;50.774;4.944;2022-08-04T21:21:59;21.10;99.90
14709;DHT22;7445;50.774;4.944;2022-08-04T21:24:25;21.20;99.90
14709;DHT22;7445;50.774;4.944;2022-08-04T21:26:53;21.10;99.90
14709;DHT22;7445;50.774;4.944;2022-08-04T21:29:19;21.10;99.90
14709;DHT22;7445;50.774;4.944;2022-08-04T21:31:45;21.00;99.90
14709;DHT22;7445;50.774;4.944;2022-08-04T21:34:12;20.90;99.90
14709;DHT22;7445;50.774;4.944;2022-08-04T21:36:39;20.80;99.90
14709;DHT22;7445;50.774;4.944;2022-08-04T21:39:05;20.90;99.90
14709;DHT22;7445;50.774;4.944;2022-08-04T21:41:31;20.90;99.90
14709;DHT22;7445;50.774;4.944;2022-08-04T21:43:57;20.80;99.90
14709;DHT22;7445;50.774;4.944;2022-08-04T21:46:23;20.80;99.90
14709;DHT22;7445;50.774;4.944;2022-08-04T21:48:49;20.80;99.90
14709;DHT22;7445;50.774;4.944;2022-08-04T21:51:23;20.80;99.90
14709;DHT22;7445;50.774;4.944;2022-08-04T21:53:49;20.70;99.90
14709;DHT22;7445;50.774;4.944;2022-08-04T21:56:15;20.70;99.90
14709;DHT22;7445;50.774;4.944;2022-08-04T21:58:41;20.70;99.90
14709;DHT22;7445;50.774;4.944;2022-08-04T22:01:08;20.60;99.90
14709;DHT22;7445;50.774;4.944;2022-08-04T22:03:45;20.60;99.90
14709;DHT22;7445;50.774;4.944;2022-08-04T22:06:12;20.60;99.90
14709;DHT22;7445;50.774;4.944;2022-08-04T22:08:39;20.60;99.90
14709;DHT22;7445;50.774;4.944;2022-08-04T22:11:22;20.50;99.90
14709;DHT22;7445;50.774;4.944;2022-08-04T22:13:48;20.50;99.90
14709;DHT22;7445;50.774;4.944;2022-08-04T22:16:14;20.40;99.90
14709;DHT22;7445;50.774;4.944;2022-08-04T22:18:39;20.30;99.90
14709;DHT22;7445;50.774;4.944;2022-08-04T22:21:05;20.30;99.90
14709;DHT22;7445;50.774;4.944;2022-08-04T22:23:31;20.40;99.90
14709;DHT22;7445;50.774;4.944;2022-08-04T22:25:57;20.40;99.90
14709;DHT22;7445;50.774;4.944;2022-08-04T22:28:23;20.30;99.90
14709;DHT22;7445;50.774;4.944;2022-08-04T22:30:49;20.40;99.90
14709;DHT22;7445;50.774;4.944;2022-08-04T22:33:14;20.40;99.90
14709;DHT22;7445;50.774;4.944;2022-08-04T22:35:40;20.30;99.90
14709;DHT22;7445;50.774;4.944;2022-08-04T22:38:05;20.30;99.90
14709;DHT22;7445;50.774;4.944;2022-08-04T22:40:31;20.40;99.90
14709;DHT22;7445;50.774;4.944;2022-08-04T22:42:57;20.30;99.90
14709;DHT22;7445;50.774;4.944;2022-08-04T22:45:27;20.30;99.90
14709;DHT22;7445;50.774;4.944;2022-08-04T22:47:53;20.20;99.90
14709;DHT22;7445;50.774;4.944;2022-08-04T22:50:19;20.00;99.90
14709;DHT22;7445;50.774;4.944;2022-08-04T22:52:45;20.00;99.90
14709;DHT22;7445;50.774;4.944;2022-08-04T22:55:10;19.90;99.90
14709;DHT22;7445;50.774;4.944;2022-08-04T22:57:36;20.00;99.90
14709;DHT22;7445;50.774;4.944;2022-08-04T23:00:03;20.00;99.90
14709;DHT22;7445;50.774;4.944;2022-08-04T23:02:29;20.00;99.90
14709;DHT22;7445;50.774;4.944;2022-08-04T23:04:54;20.10;99.90
14709;DHT22;7445;50.774;4.944;2022-08-04T23:07:20;20.10;99.90
14709;DHT22;7445;50.774;4.944;2022-08-04T23:09:45;20.10;99.90
14709;DHT22;7445;50.774;4.944;2022-08-04T23:12:11;20.10;99.90
14709;DHT22;7445;50.774;4.944;2022-08-04T23:14:37;20.10;99.90
14709;DHT22;7445;50.774;4.944;2022-08-04T23:17:02;20.20;99.90
14709;DHT22;7445;50.774;4.944;2022-08-04T23:19:28;20.20;99.90
14709;DHT22;7445;50.774;4.944;2022-08-04T23:21:53;20.10;99.90
14709;DHT22;7445;50.774;4.944;2022-08-04T23:24:19;20.00;99.90
14709;DHT22;7445;50.774;4.944;2022-08-04T23:26:45;20.00;99.90
14709;DHT22;7445;50.774;4.944;2022-08-04T23:29:11;20.00;99.90
14709;DHT22;7445;50.774;4.944;2022-08-04T23:31:37;20.00;99.90
14709;DHT22;7445;50.774;4.944;2022-08-04T23:34:02;20.00;99.90
14709;DHT22;7445;50.774;4.944;2022-08-04T23:36:28;19.90;99.90
14709;DHT22;7445;50.774;4.944;2022-08-04T23:38:54;19.90;99.90
14709;DHT22;7445;50.774;4.944;2022-08-04T23:41:19;19.80;99.90
14709;DHT22;7445;50.774;4.944;2022-08-04T23:43:45;19.80;99.90
14709;DHT22;7445;50.774;4.944;2022-08-04T23:46:13;19.80;99.90
14709;DHT22;7445;50.774;4.944;2022-08-04T23:48:39;19.80;99.90
14709;DHT22;7445;50.774;4.944;2022-08-04T23:51:07;19.70;99.90
14709;DHT22;7445;50.774;4.944;2022-08-04T23:53:33;19.80;99.90
14709;DHT22;7445;50.774;4.944;2022-08-04T23:56:25;19.80;99.90
14709;DHT22;7445;50.774;4.944;2022-08-04T23:58:51;19.90;99.90
